Albany, New York
Traffic Map
Current Weather Conditions
Albany, New York
Few Clouds
Few Clouds
15°
Feels Like: 15°
Wind Chill: 15° Ceiling: Unl
Heat Index: 15° Visibility: 10mi
Dew Point: 12° Wind: 3mph
Humidity: 81% Direction: 290° (WNW)
Pressure: 30.19in Gusts: 0mph
Raw Report DataKALB 291151Z 29003KT 10SM FEW260 15/12 A3019 RMK AO2 SLP221 T01500117 10150 20094 51023
Traffic Incident Summary
Active as of:
Severity:
Category:
InformationThere was an issue retrieving the traffic information for this location. Please try a different location or try again shortly.
Advertisements
Track Severe Weather on mobile